Terminal Aerodrome Forecast
Issued by NWS

Home | Current Version | Previous Version | Text Only | Print | Product List | Glossary On
Versions: 1 2 3 4 5 6 7 8 9 10 11 12 13 14
000
FTUS45 KTFX 122329
TAFHLN
TAF
KHLN 122329Z 1300/1324 VRB03KT P6SM FEW010 SCT090 BKN150
     FM130500 VRB03KT P6SM VCFG FEW005 SCT100 BKN200
     FM131000 VRB03KT P6SM VCSH SCT050 OVC090
     FM131500 VRB03KT P6SM VCSH SCT030 OVC050 PROB30 1315/1321 4SM
      -SN BR BKN025=

USA.gov is the U.S. government's official web portal to all federal, state and local government web resources and services.